createdAt,value
2019-05-23T00:02:07.574Z,97007.28
2019-05-23T00:05:14.092Z,97001.84
2019-05-23T00:08:31.658Z,96996.09
2019-05-23T00:11:22.061Z,96999.37
2019-05-23T00:14:16.999Z,96999.20
2019-05-23T00:16:58.951Z,96998.19
2019-05-23T00:19:32.867Z,96996.13
2019-05-23T00:22:13.149Z,96998.28
2019-05-23T00:24:54.769Z,96995.00
2019-05-23T00:27:39.348Z,96999.45
2019-05-23T00:30:23.492Z,96999.03
2019-05-23T00:33:08.500Z,96996.16
2019-05-23T00:35:41.539Z,97000.91
2019-05-23T00:38:14.799Z,96999.94
2019-05-23T00:40:49.769Z,97000.77
2019-05-23T00:43:29.764Z,97000.77
2019-05-23T00:46:04.048Z,96993.73
2019-05-23T00:48:40.587Z,96996.19
2019-05-23T00:51:12.727Z,96994.09
2019-05-23T00:53:45.585Z,96994.91
2019-05-23T00:56:17.731Z,96997.22
2019-05-23T00:58:56.902Z,96995.44
2019-05-23T01:01:32.153Z,97001.97
2019-05-23T01:04:04.570Z,96993.16
2019-05-23T01:06:40.701Z,96987.62
2019-05-23T01:09:13.994Z,96979.03
2019-05-23T01:11:46.659Z,96979.69
2019-05-23T01:14:20.074Z,96970.87
2019-05-23T01:16:57.535Z,96976.94
2019-05-23T01:19:29.286Z,96970.89
2019-05-23T01:22:04.204Z,96975.95
2019-05-23T01:24:44.320Z,96981.33
2019-05-23T01:27:23.985Z,96983.30
2019-05-23T01:29:58.183Z,96974.52
2019-05-23T01:32:57.240Z,96971.90
2019-05-23T01:35:33.108Z,96982.32
2019-05-23T01:38:07.140Z,96986.73
2019-05-23T01:40:40.943Z,96988.19
2019-05-23T01:43:13.499Z,96974.98
2019-05-23T01:45:46.670Z,96972.97
2019-05-23T01:48:22.165Z,96969.61
2019-05-23T01:50:57.635Z,96965.34
2019-05-23T01:53:29.940Z,96968.53
2019-05-23T01:56:38.003Z,96966.13
2019-05-23T01:59:19.753Z,96963.52
2019-05-23T02:01:56.821Z,96974.72
2019-05-23T02:04:37.684Z,96969.84
2019-05-23T02:07:26.216Z,96964.24
2019-05-23T02:10:04.771Z,96962.13
2019-05-23T02:12:49.147Z,96966.63
2019-05-23T02:15:28.273Z,96962.20
2019-05-23T02:18:03.331Z,96956.17
2019-05-23T02:20:35.575Z,96957.44
2019-05-23T02:23:07.685Z,96953.56
2019-05-23T02:25:40.031Z,96951.59
2019-05-23T02:28:23.704Z,96955.30
2019-05-23T02:31:08.133Z,96956.17
2019-05-23T02:33:45.360Z,96955.15
2019-05-23T02:36:26.662Z,96964.06
2019-05-23T02:39:15.545Z,96963.08
2019-05-23T02:42:14.715Z,96960.75
2019-05-23T02:44:52.861Z,96963.36
2019-05-23T02:47:34.592Z,96957.28
2019-05-23T02:50:21.574Z,96962.38
2019-05-23T02:53:04.693Z,96958.73
2019-05-23T02:55:42.474Z,96958.78
2019-05-23T02:58:49.870Z,96961.78
2019-05-23T03:01:41.848Z,96958.89
2019-05-23T03:04:24.392Z,96958.66
2019-05-23T03:07:03.713Z,96955.78
2019-05-23T03:09:45.803Z,96949.27
2019-05-23T03:12:28.881Z,96948.70
2019-05-23T03:15:21.841Z,96945.78
2019-05-23T03:18:05.793Z,96945.22
2019-05-23T03:20:41.796Z,96955.56
2019-05-23T03:23:20.643Z,96951.49
2019-05-23T03:26:54.657Z,96951.69
2019-05-23T03:29:30.873Z,96945.08
2019-05-23T03:32:37.879Z,96937.51
2019-05-23T03:35:38.909Z,96938.02
2019-05-23T03:38:13.187Z,96934.67
2019-05-23T03:40:51.095Z,96923.02
2019-05-23T03:43:31.873Z,96923.58
2019-05-23T03:46:13.883Z,96917.82
2019-05-23T03:48:50.881Z,96925.40
2019-05-23T03:51:50.046Z,96928.41
2019-05-23T03:54:24.178Z,96917.25
2019-05-23T03:56:56.017Z,96930.23
2019-05-23T03:59:29.249Z,96920.66
2019-05-23T04:09:27.840Z,96925.73
2019-05-23T04:12:55.047Z,96933.75
2019-05-23T04:15:36.817Z,96944.06
2019-05-23T04:18:10.419Z,96951.08
2019-05-23T04:20:42.241Z,96949.46
2019-05-23T04:23:14.203Z,96952.87
2019-05-23T04:25:45.858Z,96951.75
2019-05-23T04:28:18.434Z,96955.97
2019-05-23T04:30:50.462Z,96950.09
2019-05-23T04:33:22.661Z,96954.31
2019-05-23T04:35:54.455Z,96955.94
2019-05-23T04:38:27.544Z,96953.95
2019-05-23T04:40:59.684Z,96953.01
2019-05-23T04:43:31.783Z,96949.73
2019-05-23T04:46:03.973Z,96953.97
2019-05-23T04:48:36.034Z,96953.31
2019-05-23T04:51:09.431Z,96954.31
2019-05-23T04:53:41.917Z,96957.41
2019-05-23T04:56:15.281Z,96965.42
2019-05-23T05:02:48.427Z,96961.33
2019-05-23T05:09:05.774Z,96958.72
2019-05-23T05:11:43.098Z,96976.73
2019-05-23T05:14:15.628Z,96974.29
2019-05-23T05:16:47.530Z,96975.28
2019-05-23T05:19:19.845Z,96973.98
2019-05-23T05:21:51.566Z,96978.39
2019-05-23T05:24:29.446Z,96974.31
2019-05-23T05:27:12.882Z,96982.84
2019-05-23T05:29:44.627Z,96980.72
2019-05-23T05:32:17.125Z,96985.58
2019-05-23T05:34:49.606Z,96985.02
2019-05-23T05:37:21.404Z,96982.02
2019-05-23T05:39:55.229Z,96980.95
2019-05-23T05:42:39.512Z,96984.53
2019-05-23T05:45:12.192Z,96982.06
2019-05-23T05:47:45.297Z,96990.44
2019-05-23T05:50:19.615Z,96996.75
2019-05-23T05:52:52.186Z,96993.67
2019-05-23T05:55:25.546Z,96992.53
2019-05-23T05:58:03.919Z,97000.22
2019-05-23T06:01:03.777Z,97000.26
2019-05-23T06:03:36.468Z,96998.41
2019-05-23T06:06:29.744Z,97004.48
2019-05-23T06:09:11.702Z,97007.73
2019-05-23T06:11:43.299Z,97005.31
2019-05-23T06:14:17.509Z,97011.23
2019-05-23T06:16:50.692Z,97013.77
2019-05-23T06:19:22.720Z,97014.06
2019-05-23T06:22:04.527Z,97015.76
2019-05-23T06:24:47.218Z,97022.89
2019-05-23T06:27:13.678Z,97026.09
2019-05-23T06:29:52.756Z,97021.61
2019-05-23T06:32:26.486Z,97026.61
2019-05-23T06:35:24.957Z,97021.56
2019-05-23T06:37:58.014Z,97034.00
2019-05-23T06:40:30.284Z,97032.39
2019-05-23T06:43:02.045Z,97033.20
2019-05-23T06:45:34.586Z,97039.40
2019-05-23T06:48:08.140Z,97030.39
2019-05-23T06:50:39.860Z,97037.38
2019-05-23T06:53:17.391Z,97037.73
2019-05-23T06:55:49.564Z,97041.66
2019-05-23T06:58:21.849Z,97041.64
2019-05-23T07:00:55.297Z,97048.18
2019-05-23T07:03:41.895Z,97048.45
2019-05-23T07:06:01.290Z,97047.97
2019-05-23T07:08:33.998Z,97051.19
2019-05-23T07:11:05.846Z,97058.61
2019-05-23T07:13:40.955Z,97061.70
2019-05-23T07:16:15.652Z,97056.12
2019-05-23T07:18:48.318Z,97060.20
2019-05-23T07:21:20.220Z,97065.09
2019-05-23T07:23:52.361Z,97072.20
2019-05-23T07:26:24.183Z,97069.59
2019-05-23T07:28:56.370Z,97067.95
2019-05-23T07:31:28.067Z,97072.66
2019-05-23T07:34:02.311Z,97068.90
2019-05-23T07:36:39.447Z,97076.66
2019-05-23T07:39:11.980Z,97079.65
2019-05-23T07:41:43.970Z,97086.30
2019-05-23T07:44:15.823Z,97080.22
2019-05-23T07:46:52.583Z,97084.39
2019-05-23T07:49:28.380Z,97086.24
2019-05-23T07:52:03.391Z,97085.64
2019-05-23T07:54:47.346Z,97083.95
2019-05-23T07:57:42.437Z,97084.17
2019-05-23T08:00:23.872Z,97086.26
2019-05-23T08:02:57.010Z,97086.06
2019-05-23T08:05:33.816Z,97085.89
2019-05-23T08:08:10.299Z,97085.00
2019-05-23T08:10:42.318Z,97086.90
2019-05-23T08:16:54.012Z,97085.41
2019-05-23T08:19:48.904Z,97096.25
2019-05-23T08:29:26.695Z,97104.69
2019-05-23T08:31:58.185Z,97100.95
2019-05-23T08:37:52.931Z,97103.13
2019-05-23T08:40:41.928Z,97092.71
2019-05-23T08:43:05.860Z,97100.25
2019-05-23T08:45:49.531Z,97107.48
2019-05-23T08:48:26.652Z,97104.94
2019-05-23T08:50:58.504Z,97103.78
2019-05-23T08:53:39.379Z,97102.98
2019-05-23T08:56:24.846Z,97115.66
2019-05-23T08:59:03.927Z,97113.55
2019-05-23T09:01:39.414Z,97114.88
2019-05-23T09:04:15.316Z,97114.55
2019-05-23T09:06:46.889Z,97116.13
2019-05-23T09:09:29.444Z,97116.13
2019-05-23T09:11:59.809Z,97109.01
2019-05-23T09:14:38.311Z,97108.91
2019-05-23T09:17:11.161Z,97109.76
2019-05-23T09:19:42.859Z,97109.33
2019-05-23T09:22:22.031Z,97107.49
2019-05-23T09:25:00.742Z,97104.37
2019-05-23T09:27:34.737Z,97098.95
2019-05-23T09:30:21.361Z,97095.69
2019-05-23T09:33:01.603Z,97099.47
2019-05-23T09:35:33.813Z,97096.64
2019-05-23T09:38:09.895Z,97096.92
2019-05-23T09:40:44.997Z,97100.13
2019-05-23T09:43:18.536Z,97100.41
2019-05-23T09:45:50.210Z,97101.66
2019-05-23T09:48:22.744Z,97101.45
2019-05-23T09:50:58.308Z,97096.98
2019-05-23T09:53:37.946Z,97096.48
2019-05-23T09:56:09.693Z,97103.53
2019-05-23T09:59:07.187Z,97096.39
2019-05-23T10:01:40.728Z,97089.20
2019-05-23T10:04:25.355Z,97084.41
2019-05-23T10:06:57.213Z,97094.80
2019-05-23T10:09:30.007Z,97093.65
2019-05-23T10:12:01.783Z,97101.27
2019-05-23T10:14:38.222Z,97094.67
2019-05-23T10:17:11.279Z,97091.77
2019-05-23T10:19:42.984Z,97092.53
2019-05-23T10:22:16.964Z,97091.63
2019-05-23T10:24:48.592Z,97081.66
2019-05-23T10:27:26.267Z,97090.92
2019-05-23T10:30:03.222Z,97087.70
2019-05-23T10:32:38.673Z,97088.11
2019-05-23T10:35:10.910Z,97091.98
2019-05-23T10:37:47.587Z,97082.31
2019-05-23T10:40:19.558Z,97080.55
2019-05-23T10:42:53.843Z,97090.95
2019-05-23T10:45:27.256Z,97082.73
2019-05-23T10:48:01.459Z,97081.60
2019-05-23T10:50:44.125Z,97077.79
2019-05-23T10:53:07.496Z,97078.66
2019-05-23T10:55:41.570Z,97073.73
2019-05-23T10:58:19.037Z,97067.02
2019-05-23T11:00:54.323Z,97072.06
2019-05-23T11:03:31.497Z,97073.05
2019-05-23T11:06:16.063Z,97070.37
2019-05-23T11:08:49.402Z,97073.23
2019-05-23T11:11:23.362Z,97061.75
2019-05-23T11:13:58.116Z,97073.60
2019-05-23T11:16:31.378Z,97067.19
2019-05-23T11:26:44.207Z,97069.47
2019-05-23T11:29:19.069Z,97072.58
2019-05-23T11:32:00.624Z,97067.06
2019-05-23T11:34:34.367Z,97060.50
2019-05-23T11:37:06.310Z,97062.23
2019-05-23T11:39:42.339Z,97059.95
2019-05-23T11:42:15.195Z,97056.45
2019-05-23T11:44:47.110Z,97055.60
2019-05-23T11:47:24.520Z,97055.80
2019-05-23T11:49:59.510Z,97046.91
2019-05-23T11:52:31.974Z,97042.35
2019-05-23T11:55:03.820Z,97036.66
2019-05-23T11:58:19.845Z,97036.14
2019-05-23T12:05:11.762Z,97028.08
2019-05-23T12:11:11.735Z,97014.52
2019-05-23T12:11:50.847Z,97028.16
2019-05-23T12:13:44.080Z,97013.89
2019-05-23T12:16:15.824Z,97021.63
2019-05-23T12:18:50.362Z,97017.83
2019-05-23T12:21:29.786Z,97022.78
2019-05-23T12:24:09.511Z,97013.55
2019-05-23T12:26:47.122Z,97008.15
2019-05-23T12:29:26.351Z,97002.01
2019-05-23T12:32:03.281Z,96991.18
2019-05-23T12:34:43.650Z,96992.07
2019-05-23T12:37:21.159Z,96998.44
2019-05-23T12:39:55.387Z,96997.70
2019-05-23T12:42:37.948Z,97000.47
2019-05-23T12:45:11.944Z,96995.05
2019-05-23T12:48:02.537Z,96993.72
2019-05-23T12:50:39.895Z,96999.14
2019-05-23T12:57:07.425Z,97001.69
2019-05-23T13:00:46.059Z,96990.11
2019-05-23T13:03:17.172Z,96984.88
2019-05-23T13:05:51.389Z,96961.17
2019-05-23T13:08:26.276Z,96969.09
2019-05-23T13:11:09.553Z,96951.78
2019-05-23T13:14:47.005Z,96955.89
2019-05-23T13:20:25.486Z,96950.48
2019-05-23T13:22:57.765Z,96946.20
2019-05-23T13:25:29.963Z,96958.28
2019-05-23T13:28:05.300Z,96956.28
2019-05-23T13:30:37.163Z,96948.12
2019-05-23T13:40:05.902Z,96959.31
2019-05-23T13:42:43.255Z,96953.53
2019-05-23T13:45:15.757Z,96951.95
2019-05-23T13:47:54.436Z,96954.34
2019-05-23T13:50:39.360Z,96953.11
2019-05-23T13:53:16.667Z,96951.89
2019-05-23T13:56:02.496Z,96955.66
2019-05-23T13:58:52.430Z,96954.19
2019-05-23T14:01:25.167Z,96947.22
2019-05-23T14:04:02.243Z,96939.39
2019-05-23T14:06:35.754Z,96939.70
2019-05-23T14:09:16.810Z,96934.86
2019-05-23T14:12:20.201Z,96931.75
2019-05-23T14:14:38.815Z,96930.53
2019-05-23T14:17:32.191Z,96936.67
2019-05-23T14:20:23.870Z,96931.68
2019-05-23T14:23:14.319Z,96936.16
2019-05-23T14:25:58.949Z,96937.73
2019-05-23T14:28:45.775Z,96943.23
2019-05-23T14:31:33.969Z,96940.33
2019-05-23T14:34:26.258Z,96939.51
2019-05-23T14:37:17.485Z,96939.86
2019-05-23T14:39:56.035Z,96939.37
2019-05-23T14:43:08.071Z,96926.41
2019-05-23T14:46:01.630Z,96925.75
2019-05-23T14:49:00.745Z,96918.48
2019-05-23T14:52:01.287Z,96919.53
2019-05-23T14:54:48.255Z,96924.95
2019-05-23T14:57:45.930Z,96911.77
2019-05-23T15:00:23.623Z,96916.58
2019-05-23T15:03:03.669Z,96925.43
2019-05-23T15:05:42.288Z,96918.64
2019-05-23T15:08:17.144Z,96919.23
2019-05-23T15:11:02.341Z,96921.68
2019-05-23T15:13:43.048Z,96916.30
2019-05-23T15:16:16.009Z,96915.84
2019-05-23T15:19:40.404Z,96904.56
2019-05-23T15:25:27.434Z,96905.45
2019-05-23T15:28:08.681Z,96900.78
2019-05-23T15:30:42.727Z,96906.06
2019-05-23T15:33:24.854Z,96901.49
2019-05-23T15:35:58.122Z,96909.80
2019-05-23T15:38:33.863Z,96903.62
2019-05-23T15:41:06.305Z,96897.83
2019-05-23T15:43:42.102Z,96899.13
2019-05-23T15:46:21.254Z,96894.80
2019-05-23T15:48:55.424Z,96896.44
2019-05-23T15:51:34.055Z,96899.10
2019-05-23T15:54:20.618Z,96896.73
2019-05-23T15:57:20.171Z,96894.77
2019-05-23T16:00:15.135Z,96893.69
2019-05-23T16:03:15.782Z,96894.39
2019-05-23T16:05:56.163Z,96892.41
2019-05-23T16:08:28.283Z,96895.09
2019-05-23T16:11:01.755Z,96891.16
2019-05-23T16:13:33.539Z,96898.87
2019-05-23T16:16:06.628Z,96900.19
2019-05-23T16:18:41.812Z,96898.20
2019-05-23T16:21:16.782Z,96904.13
2019-05-23T16:24:02.317Z,96895.69
2019-05-23T16:26:51.792Z,96893.11
2019-05-23T16:29:31.755Z,96896.11
2019-05-23T16:32:07.684Z,96901.97
2019-05-23T16:34:50.779Z,96903.84
2019-05-23T16:37:24.371Z,96903.39
2019-05-23T16:39:56.048Z,96911.30
2019-05-23T16:42:35.015Z,96909.98
2019-05-23T16:45:19.142Z,96911.67
2019-05-23T16:48:08.162Z,96912.69
2019-05-23T16:50:43.018Z,96906.80
2019-05-23T16:53:54.342Z,96901.28
2019-05-23T16:56:20.017Z,96898.16
2019-05-23T16:59:13.359Z,96907.12
2019-05-23T17:02:06.368Z,96902.14
2019-05-23T17:05:10.449Z,96900.09
2019-05-23T17:07:55.341Z,96902.22
2019-05-23T17:11:01.941Z,96904.92
2019-05-23T17:13:48.239Z,96912.13
2019-05-23T17:16:38.476Z,96908.30
2019-05-23T17:19:47.937Z,96900.38
2019-05-23T17:22:41.319Z,96897.14
2019-05-23T17:25:34.589Z,96893.00
2019-05-23T17:28:30.597Z,96900.47
2019-05-23T17:31:05.177Z,96897.55
2019-05-23T17:33:44.760Z,96898.97
2019-05-23T17:36:24.869Z,96897.09
2019-05-23T17:38:57.564Z,96896.81
2019-05-23T17:41:29.539Z,96901.25
2019-05-23T17:44:06.981Z,96910.02
2019-05-23T17:46:54.319Z,96913.30
2019-05-23T17:49:25.980Z,96914.55
2019-05-23T17:52:11.064Z,96926.77
2019-05-23T17:54:44.242Z,96926.67
2019-05-23T17:57:23.187Z,96932.63
2019-05-23T18:00:02.048Z,96935.02
2019-05-23T18:02:33.896Z,96939.69
2019-05-23T18:05:07.153Z,96940.86
2019-05-23T18:07:39.942Z,96945.25
2019-05-23T18:10:12.827Z,96951.56
2019-05-23T18:12:44.743Z,96952.83
2019-05-23T18:15:18.217Z,96958.23
2019-05-23T18:17:58.686Z,96955.52
2019-05-23T18:20:26.871Z,96955.11
2019-05-23T18:22:58.810Z,96959.09
2019-05-23T18:25:31.205Z,96965.21
2019-05-23T18:28:04.747Z,96964.47
2019-05-23T18:30:39.948Z,96968.52
2019-05-23T18:33:23.504Z,96969.50
2019-05-23T18:36:09.927Z,96961.47
2019-05-23T18:38:55.794Z,96970.62
2019-05-23T18:41:49.579Z,96971.48
2019-05-23T18:44:35.148Z,96979.29
2019-05-23T18:47:17.972Z,96973.59
2019-05-23T18:49:53.061Z,96963.80
2019-05-23T18:52:54.268Z,96960.83
2019-05-23T18:55:41.441Z,96968.34
2019-05-23T18:58:21.540Z,96971.30
2019-05-23T19:01:41.183Z,96969.31
2019-05-23T19:04:13.716Z,96957.53
2019-05-23T19:06:58.439Z,96963.80
2019-05-23T19:09:30.638Z,96963.38
2019-05-23T19:12:03.266Z,96962.89
2019-05-23T19:14:35.101Z,96962.41
2019-05-23T19:17:13.938Z,96959.81
2019-05-23T19:19:46.885Z,96963.26
2019-05-23T19:22:19.913Z,96959.20
2019-05-23T19:24:51.678Z,96959.69
2019-05-23T19:27:26.687Z,96968.88
2019-05-23T19:29:59.291Z,96967.23
2019-05-23T19:32:31.465Z,96959.87
2019-05-23T19:35:04.843Z,96960.03
2019-05-23T19:37:37.542Z,96957.44
2019-05-23T19:40:10.732Z,96953.71
2019-05-23T19:42:42.524Z,96955.81
2019-05-23T19:45:20.609Z,96955.81
2019-05-23T19:47:52.574Z,96951.55
2019-05-23T19:50:27.356Z,96950.72
2019-05-23T19:52:59.077Z,96940.80
2019-05-23T19:55:32.055Z,96944.19
2019-05-23T19:58:12.238Z,96941.14
2019-05-23T20:00:57.616Z,96943.09
2019-05-23T20:03:37.791Z,96940.31
2019-05-23T20:06:16.672Z,96934.09
2019-05-23T20:08:57.442Z,96937.91
2019-05-23T20:11:34.633Z,96942.14
2019-05-23T20:14:12.293Z,96941.38
2019-05-23T20:16:45.127Z,96938.34
2019-05-23T20:19:20.431Z,96933.26
2019-05-23T20:22:05.869Z,96928.68
2019-05-23T20:24:49.763Z,96930.94
2019-05-23T20:27:29.890Z,96930.34
2019-05-23T20:30:14.983Z,96918.72
2019-05-23T20:32:49.256Z,96919.24
2019-05-23T20:35:28.224Z,96913.84
2019-05-23T20:38:16.831Z,96917.30
2019-05-23T20:40:56.894Z,96912.22
2019-05-23T20:43:35.441Z,96914.20
2019-05-23T20:46:11.833Z,96908.33
2019-05-23T20:48:51.742Z,96909.59
2019-05-23T20:51:25.238Z,96905.75
2019-05-23T20:54:12.489Z,96905.75
2019-05-23T20:56:49.877Z,96897.70
2019-05-23T20:59:35.250Z,96897.08
2019-05-23T21:02:15.283Z,96902.16
2019-05-23T21:04:48.124Z,96891.23
2019-05-23T21:07:34.830Z,96900.89
2019-05-23T21:10:09.961Z,96901.08
2019-05-23T21:12:46.064Z,96898.27
2019-05-23T21:15:26.695Z,96890.76
2019-05-23T21:18:10.597Z,96902.39
2019-05-23T21:20:46.302Z,96903.88
2019-05-23T21:23:24.908Z,96899.97
2019-05-23T21:26:02.537Z,96894.75
2019-05-23T21:28:43.487Z,96894.77
2019-05-23T21:31:27.824Z,96892.81
2019-05-23T21:34:25.671Z,96890.38
2019-05-23T21:37:19.320Z,96886.30
2019-05-23T21:40:04.388Z,96889.58
2019-05-23T21:42:47.100Z,96888.11
2019-05-23T21:45:11.756Z,96885.17
2019-05-23T21:47:44.646Z,96895.12
2019-05-23T21:50:24.993Z,96876.80
2019-05-23T21:53:05.812Z,96882.38
2019-05-23T21:55:48.828Z,96881.23
2019-05-23T21:58:26.244Z,96881.71
2019-05-23T22:01:35.346Z,96878.31
2019-05-23T22:04:47.815Z,96879.28
2019-05-23T22:07:24.710Z,96873.42
2019-05-23T22:10:02.524Z,96874.08
2019-05-23T22:13:03.747Z,96874.22
2019-05-23T22:15:38.551Z,96875.39
2019-05-23T22:18:10.805Z,96869.00
2019-05-23T22:20:45.012Z,96858.70
2019-05-23T22:23:17.203Z,96861.98
2019-05-23T22:25:49.351Z,96860.02
2019-05-23T22:28:22.916Z,96860.66
2019-05-23T22:30:55.294Z,96852.64
2019-05-23T22:33:28.905Z,96847.92
2019-05-23T22:36:01.524Z,96853.94
2019-05-23T22:38:35.895Z,96860.17
2019-05-23T22:41:08.095Z,96859.02
2019-05-23T22:43:40.308Z,96855.27
2019-05-23T22:46:13.123Z,96858.53
2019-05-23T22:48:45.044Z,96863.45
2019-05-23T22:51:17.073Z,96862.14
2019-05-23T22:53:49.279Z,96864.11
2019-05-23T22:56:22.299Z,96857.56
2019-05-23T22:58:54.050Z,96858.88
2019-05-23T23:01:27.470Z,96860.31
2019-05-23T23:04:00.012Z,96859.02
2019-05-23T23:06:32.354Z,96855.92
2019-05-23T23:09:04.756Z,96855.11
2019-05-23T23:11:36.612Z,96855.94
2019-05-23T23:14:09.491Z,96854.62
2019-05-23T23:16:41.865Z,96848.25
2019-05-23T23:19:13.903Z,96852.66
2019-05-23T23:21:46.157Z,96846.45
2019-05-23T23:24:18.167Z,96840.08
2019-05-23T23:26:50.363Z,96839.25
2019-05-23T23:29:22.283Z,96835.33
2019-05-23T23:31:54.234Z,96838.75
2019-05-23T23:34:25.968Z,96833.70
2019-05-23T23:36:58.504Z,96832.08
2019-05-23T23:39:35.956Z,96834.52
2019-05-23T23:42:08.042Z,96830.26
2019-05-23T23:44:38.414Z,96823.55
2019-05-23T23:47:27.214Z,96820.73
2019-05-23T23:50:15.926Z,96821.59
2019-05-23T23:53:04.720Z,96824.20
2019-05-23T23:55:53.555Z,96821.88
2019-05-23T23:58:24.072Z,96813.55
